KHQI

High Island 376

High Island 376, Texas, USA
METAR KHQI 221355Z AUTO 06019KT 10SM SCT028 BKN041 BKN070 26/19 A3008 RMK A01
Observed Flight Rules
Oct-22 @ 13:55 UTC (25 minutes ago) Visual Flight Rules
Wind Visibility Clouds
60° at 19 knots 10 miles
  • Scattered at 2,800' AGL
  • Broken at 4,100' AGL
  • Broken at 7,000' AGL
Temperatures Readings
Current 26°C / 79°F
Dewpoint 19°C / 66°F
Humidity 65%
Altimeter 30.08" Hg
Pressure 1019 hPa
Elevation 26
METAR KHQI 221355Z AUTO 06019KT 10SM SCT028 BKN041 BKN070 26/19 A3008 RMK A01
Observed Flight Rules
Oct-22 @ 13:55 UTC
(25 minutes ago)
VFR
Wind Visibility
60° at 19 knots 10 miles
Clouds
  • Scattered at 2,800' AGL
  • Broken at 4,100' AGL
  • Broken at 7,000' AGL
Temperature Dewpoint
26°C / 79°F 19°C / 66°F
Humidity Altimeter Pressure
65% 30.08" Hg 1019 hPa